Flight Track Log - Related Links

Times and Time Zones

All times are in EDT time to prevent confusion due to time zone crossing. See the N313CR flight status page for this flight to view local times or setup timezone preferences in your user account.

Time Position Orientation Groundspeed Altitude Reporting Facility
EDT Latitude Longitude Course Direction KTS MPH feet Rate Location/Type
Wed 02:32:19 PM 39.0500 -84.6667 322° Northwest 150 173 1,400  Level Cincinnati TRACON
Wed 02:32:55 PM 39.0667 -84.6833 322° Northwest 203 234 3,200 3,188 Climbing Cincinnati TRACON
Wed 02:33:55 PM 39.1500 -84.6833 360° North 266 306 6,500 2,747 Climbing Cincinnati TRACON
Wed 02:36:05 PM 39.3186 -84.6192 16° North 316 364 11,900 2,250 Climbing Indianapolis Center
Wed 02:37:07 PM 39.4189 -84.5881 13° North 359 413 13,700 1,984 Climbing Indianapolis Center
Wed 02:38:09 PM 39.5211 -84.5553 14° North 372 428 16,000 2,129 Climbing Indianapolis Center
Wed 02:39:11 PM 39.6236 -84.5203 15° North 376 433 18,100 1,935 Climbing Indianapolis Center
Wed 02:40:13 PM 39.7300 -84.4886 13° North 384 442 20,000 1,500 Climbing Indianapolis Center
Wed 02:41:15 PM 39.8439 -84.4528 14° North 408 470 21,200 1,113 Climbing Indianapolis Center
Wed 02:42:17 PM 39.9633 -84.4153 14° North 430 495 22,300 1,161 Climbing Indianapolis Center
Wed 02:43:19 PM 40.1092 -84.3872 North 445 512 23,600 1,171 Climbing Indianapolis Center
Wed 02:44:20 PM 40.2342 -84.3783 North 445 512 24,700 1,122 Climbing Indianapolis Center
Wed 02:45:22 PM 40.3614 -84.3664 North 450 518 25,900 1,065 Climbing Indianapolis Center
Wed 02:46:24 PM 40.4875 -84.3547 North 449 517 26,900 532 Climbing Indianapolis Center
Wed 02:47:26 PM 40.6183 -84.3453 North 463 533 27,000 48 Climbing Indianapolis Center
Wed 02:48:28 PM 40.7544 -84.3328 North 482 555 27,000  Level Indianapolis Center
Wed 02:49:30 PM 40.8897 -84.3206 North 483 556 27,000  Level Indianapolis Center
Wed 02:50:26 PM 41.0153 -84.3094 North 475 547 27,000  Level Cleveland Center
Wed 02:51:26 PM 41.1469 -84.2978 North 475 547 27,000  Level Cleveland Center
Wed 02:52:26 PM 41.2786 -84.2858 North 475 547 27,000  Level Cleveland Center
Wed 02:53:26 PM 41.4086 -84.2711 North 475 547 27,000  Level Cleveland Center
Wed 02:54:26 PM 41.5519 -84.2239 14° North 475 547 27,000  Level Cleveland Center
Wed 02:55:26 PM 41.6844 -84.1842 13° North 475 547 27,000  Level Cleveland Center
Wed 02:56:26 PM 41.8147 -84.1550 North 475 547 27,000  Level Cleveland Center
Wed 02:57:26 PM 41.9461 -84.1542 360° North 468 539 27,000  Level Cleveland Center
Wed 02:58:26 PM 42.0797 -84.1503 North 468 539 27,000 -550 Level Cleveland Center
Wed 02:59:26 PM 42.2111 -84.1436 North 468 539 25,900 -1,150 Descending Cleveland Center
Wed 03:00:26 PM 42.3364 -84.1394 North 462 532 24,700 -1,200 Descending Cleveland Center
Wed 03:01:26 PM 42.4597 -84.1325 North 452 520 23,500 -950 Descending Cleveland Center
Wed 03:02:26 PM 42.5744 -84.1303 North 430 495 22,800 -1,050 Descending Cleveland Center
Wed 03:03:26 PM 42.6831 -84.1225 North 408 470 21,400 -1,100 Descending Cleveland Center
Wed 03:04:26 PM 42.7936 -84.1172 North 398 458 20,600 -1,100 Descending Cleveland Center
Wed 03:05:26 PM 42.9003 -84.1119 North 393 452 19,200 -1,500 Descending Cleveland Center
Wed 03:06:26 PM 43.0044 -84.1067 North 380 437 17,600 -1,450 Descending Cleveland Center
Wed 03:07:26 PM 43.0942 -84.1031 North 370 426 16,300 -1,750 Descending Cleveland Center
Wed 03:08:26 PM 43.1903 -84.0972 North 357 411 14,100 -2,300 Descending Cleveland Center
Wed 03:09:26 PM 43.2822 -84.0939 North 347 399 11,700 -2,550 Descending Cleveland Center
Wed 03:10:26 PM 43.3658 -84.0817 North 296 341 9,000 -3,900 Descending Cleveland Center
Wed 03:11:26 PM 43.4197 -84.0244 38° Northeast 235 270 3,900 -3,050 Descending Cleveland Center
Wed 03:12:26 PM 43.4764 -84.0106 10° North 222 255 2,900 -1,250 Descending Cleveland Center
Wed 03:13:26 PM 43.5044 -84.0492 315° West 162 186 1,400 -1,100 Descending Cleveland Center
Wed 03:14:26 PM 43.5264 -84.0792 315° West 123 142 700 4,800 Descending Cleveland Center
Wed 03:15:26 PM 43.5656 -84.0986 340° North 123 142 11,000 5,150 Climbing Cleveland Center
Wed 03:16:26 PM 43.5961 -84.1233 330° Northwest 123 142 11,000  Level Cleveland Center

Login

Don't have an account? Register now (free) for customized features, flight alerts, and more!